Time;durP1;ratioP1;P1;durP2;ratioP2;P2;SDS_P1;SDS_P2;PMS_P1;PMS_P2;Temp;Humidity;BMP_temperature;BMP_pressure;BME280_temperature;BME280_humidity;BME280_pressure;Samples;Min_cycle;Max_cycle;Signal;HPM_P1;HPM_P2
2022/01/07 00:02:09;;;;;;;;;;;;;;;3.42;77.88;99894.75;7364633;19;19921;-58
2022/01/07 00:04:36;;;;;;;;;;;;;;;3.41;77.70;99907.66;7360342;19;19963;-60
2022/01/07 00:07:05;;;;;;;;;;;;;;;3.37;77.62;99904.25;7363371;19;19923;-58
2022/01/07 00:09:30;;;;;;;;;;;;;;;3.33;77.56;99905.97;7360539;19;19982;-59
2022/01/07 00:11:56;;;;;;;;;;;;;;;3.31;77.52;99901.69;7359903;19;19947;-58
2022/01/07 00:14:21;;;;;;;;;;;;;;;3.26;77.57;99904.31;7360768;19;19914;-59
2022/01/07 00:16:48;;;;;;;;;;;;;;;3.23;77.78;99908.63;7359658;19;20351;-59
2022/01/07 00:19:15;;;;;;;;;;;;;;;3.19;77.85;99933.56;7355907;19;19922;-59
2022/01/07 00:21:40;;;;;;;;;;;;;;;3.17;77.54;99914.66;7357408;19;20011;-60
2022/01/07 00:24:06;;;;;;;;;;;;;;;3.14;77.59;99914.69;7357758;19;19970;-60
2022/01/07 00:26:31;;;;;;;;;;;;;;;3.13;77.58;99918.13;7362128;19;19982;-59
2022/01/07 00:28:57;;;;;;;;;;;;;;;3.10;77.76;99913.00;7358433;19;19911;-59
2022/01/07 00:31:22;;;;;;;;;;;;;;;3.09;77.82;99912.16;7361769;19;19910;-58
2022/01/07 00:33:47;;;;;;;;;;;;;;;3.09;78.06;99906.09;7356998;19;19918;-59
2022/01/07 00:36:13;;;;;;;;;;;;;;;3.09;78.04;99913.84;7362437;19;19922;-60
2022/01/07 00:38:38;;;;;;;;;;;;;;;3.10;78.21;99908.69;7361741;19;20589;-58
2022/01/07 00:41:03;;;;;;;;;;;;;;;3.13;78.63;99923.28;7363658;19;20958;-57
2022/01/07 00:43:29;;;;;;;;;;;;;;;3.14;78.21;99914.69;7362037;19;20852;-59
2022/01/07 00:45:54;;;;;;;;;;;;;;;3.17;78.70;99925.00;7361389;19;19987;-57
2022/01/07 00:48:20;;;;;;;;;;;;;;;3.20;78.94;99930.16;7364861;19;20697;-58
2022/01/07 00:50:45;;;;;;;;;;;;;;;3.25;78.75;99928.41;7362563;19;19926;-59
2022/01/07 00:53:10;;;;;;;;;;;;;;;3.30;78.91;99931.81;7362983;19;19980;-58
2022/01/07 00:55:36;;;;;;;;;;;;;;;3.35;78.85;99940.38;7362377;19;19943;-59
2022/01/07 00:58:02;;;;;;;;;;;;;;;3.39;79.01;99952.38;7361750;19;20391;-59
2022/01/07 01:00:28;;;;;;;;;;;;;;;3.44;79.09;99938.59;7358259;19;19996;-59
2022/01/07 01:02:55;;;;;;;;;;;;;;;3.46;78.76;99942.91;7360215;19;19934;-59
2022/01/07 01:05:20;;;;;;;;;;;;;;;3.48;78.45;99941.16;7358437;19;19986;-58
2022/01/07 01:07:46;;;;;;;;;;;;;;;3.49;78.44;99932.53;7363995;19;20029;-57
2022/01/07 01:10:12;;;;;;;;;;;;;;;3.49;77.94;99931.69;7361613;19;20625;-56
2022/01/07 01:12:38;;;;;;;;;;;;;;;3.46;78.00;99937.75;7362503;19;19953;-59
2022/01/07 01:15:05;;;;;;;;;;;;;;;3.44;77.61;99933.44;7359117;19;19926;-58
2022/01/07 01:17:30;;;;;;;;;;;;;;;3.41;77.87;99933.47;7359875;19;19926;-59
2022/01/07 01:19:55;;;;;;;;;;;;;;;3.38;77.58;99935.19;7362133;19;19950;-57
2022/01/07 01:22:21;;;;;;;;;;;;;;;3.38;77.79;99945.50;7358097;19;19926;-58
2022/01/07 01:24:46;;;;;;;;;;;;;;;3.36;77.85;99942.09;7362070;19;19927;-59
2022/01/07 01:27:11;;;;;;;;;;;;;;;3.38;77.97;99934.34;7356803;19;19914;-59
2022/01/07 01:29:38;;;;;;;;;;;;;;;3.38;78.17;99939.50;7362821;19;19957;-60
2022/01/07 01:32:03;;;;;;;;;;;;;;;3.39;78.39;99942.06;7357356;19;19941;-60
2022/01/07 01:34:28;;;;;;;;;;;;;;;3.41;78.14;99938.63;7363586;19;19910;-58
2022/01/07 01:36:54;;;;;;;;;;;;;;;3.42;78.46;99930.03;7356949;19;19938;-57
2022/01/07 01:39:19;;;;;;;;;;;;;;;3.43;78.45;99939.47;7359866;19;19918;-57
2022/01/07 01:41:45;;;;;;;;;;;;;;;3.44;78.58;99933.44;7360772;19;19926;-59
2022/01/07 01:44:10;;;;;;;;;;;;;;;3.45;78.28;99940.31;7359441;19;20299;-59
2022/01/07 01:46:36;;;;;;;;;;;;;;;3.45;78.31;99945.47;7358729;19;19940;-58
2022/01/07 01:49:02;;;;;;;;;;;;;;;3.45;78.37;99945.47;7357998;19;19918;-59
2022/01/07 01:51:27;;;;;;;;;;;;;;;3.46;78.15;99949.78;7359586;19;20504;-58
2022/01/07 01:53:53;;;;;;;;;;;;;;;3.47;78.65;99948.91;7361064;19;19922;-59
2022/01/07 01:56:18;;;;;;;;;;;;;;;3.48;78.30;99953.22;7361521;19;19922;-58
2022/01/07 01:58:43;;;;;;;;;;;;;;;3.46;78.04;99949.78;7365729;19;19935;-57
2022/01/07 02:01:10;;;;;;;;;;;;;;;3.42;77.94;99935.19;7357129;19;19915;-58
2022/01/07 02:03:35;;;;;;;;;;;;;;;3.37;77.79;99933.47;7358974;19;19939;-57
2022/01/07 02:06:00;;;;;;;;;;;;;;;3.32;77.27;99903.41;7360810;19;19927;-58
2022/01/07 02:08:26;;;;;;;;;;;;;;;3.25;77.68;99900.03;7360714;19;19942;-58
2022/01/07 02:10:51;;;;;;;;;;;;;;;3.22;77.66;99907.75;7359682;19;19930;-58
2022/01/07 02:13:17;;;;;;;;;;;;;;;3.17;77.46;99909.50;7360998;19;19910;-58
2022/01/07 02:15:42;;;;;;;;;;;;;;;3.12;77.33;99895.78;7362721;19;20348;-59
2022/01/07 02:18:08;;;;;;;;;;;;;;;3.10;77.55;99902.69;7363775;19;19975;-58
2022/01/07 02:20:33;;;;;;;;;;;;;;;3.04;77.48;99905.28;7359318;19;19930;-58
2022/01/07 02:22:59;;;;;;;;;;;;;;;3.00;77.55;99901.88;7361004;19;20361;-56
2022/01/07 02:25:25;;;;;;;;;;;;;;;2.97;77.85;99907.03;7359071;19;19923;-58
2022/01/07 02:27:51;;;;;;;;;;;;;;;2.96;77.73;99909.63;7363407;19;19951;-57
2022/01/07 02:30:18;;;;;;;;;;;;;;;2.93;77.97;99912.19;7360881;19;20865;-59
2022/01/07 02:32:45;;;;;;;;;;;;;;;2.92;77.65;99905.34;7359867;19;19914;-59
2022/01/07 02:35:11;;;;;;;;;;;;;;;2.90;77.93;99914.81;7362496;19;19918;-58
2022/01/07 02:37:36;;;;;;;;;;;;;;;2.89;78.42;99913.97;7358995;19;19918;-58
2022/01/07 02:40:02;;;;;;;;;;;;;;;2.90;78.31;99935.44;7362491;19;19915;-59
2022/01/07 02:42:28;;;;;;;;;;;;;;;2.89;78.45;99932.00;7356769;19;19941;-58
2022/01/07 02:44:53;;;;;;;;;;;;;;;2.90;78.18;99930.28;7358539;19;19918;-58
2022/01/07 02:47:20;;;;;;;;;;;;;;;2.89;78.46;99934.59;7357835;19;19927;-59
2022/01/07 02:49:45;;;;;;;;;;;;;;;2.89;78.20;99949.19;7361117;19;19910;-57
2022/01/07 02:52:10;;;;;;;;;;;;;;;2.90;78.40;99958.66;7357346;19;19925;-58
2022/01/07 02:54:36;;;;;;;;;;;;;;;2.90;78.70;99956.06;7360519;19;19938;-59
2022/01/07 02:57:01;;;;;;;;;;;;;;;2.93;78.77;99956.03;7361399;19;20025;-57
2022/01/07 02:59:26;;;;;;;;;;;;;;;2.94;78.59;99948.31;7352147;19;19938;-58
2022/01/07 03:01:51;;;;;;;;;;;;;;;2.97;79.07;99942.28;7362203;19;19919;-57
2022/01/07 03:04:17;;;;;;;;;;;;;;;2.98;78.58;99954.31;7361394;19;20010;-57
2022/01/07 03:06:42;;;;;;;;;;;;;;;3.01;78.39;99944.00;7359576;19;19940;-58
2022/01/07 03:09:08;;;;;;;;;;;;;;;3.02;78.50;99961.19;7360727;19;19918;-59
2022/01/07 03:11:33;;;;;;;;;;;;;;;3.02;78.53;99953.44;7364263;19;19943;-59
2022/01/07 03:13:58;;;;;;;;;;;;;;;2.96;78.41;99953.47;7355046;19;19942;-58
2022/01/07 03:16:24;;;;;;;;;;;;;;;3.01;78.27;99954.31;7362836;19;19925;-59
2022/01/07 03:18:49;;;;;;;;;;;;;;;2.96;77.78;99951.75;7361645;19;19922;-58
2022/01/07 03:21:14;;;;;;;;;;;;;;;2.92;77.78;99933.69;7358184;19;19927;-58
2022/01/07 03:23:40;;;;;;;;;;;;;;;2.86;77.30;99925.13;7368782;19;19925;-58
2022/01/07 03:26:06;;;;;;;;;;;;;;;2.81;77.42;99911.41;7370228;19;19915;-56
2022/01/07 03:28:32;;;;;;;;;;;;;;;2.76;77.52;99902.81;7368100;19;19923;-58
2022/01/07 03:30:57;;;;;;;;;;;;;;;2.72;77.58;99901.13;7364062;19;19919;-58
2022/01/07 03:33:22;;;;;;;;;;;;;;;2.67;77.44;99895.13;7369974;19;19923;-58
2022/01/07 03:35:48;;;;;;;;;;;;;;;2.62;77.64;99896.84;7369048;19;19937;-59
2022/01/07 03:38:13;;;;;;;;;;;;;;;2.58;77.69;99882.25;7369440;19;19948;-57
2022/01/07 03:40:39;;;;;;;;;;;;;;;2.49;77.66;99869.44;7367789;19;19935;-57
2022/01/07 03:43:04;;;;;;;;;;;;;;;2.51;77.83;99880.56;7363924;19;19939;-59
2022/01/07 03:45:29;;;;;;;;;;;;;;;2.49;77.98;99877.16;7367943;19;19919;-57
2022/01/07 03:47:55;;;;;;;;;;;;;;;2.48;77.99;99885.72;7370014;19;19927;-57
2022/01/07 03:50:22;;;;;;;;;;;;;;;2.44;77.73;99889.19;7365088;19;19925;-59
2022/01/07 03:52:48;;;;;;;;;;;;;;;2.41;77.91;99895.19;7369318;19;19914;-58
2022/01/07 03:55:15;;;;;;;;;;;;;;;2.39;78.46;99901.25;7347522;19;19929;-58
2022/01/07 03:57:41;;;;;;;;;;;;;;;2.38;78.46;99904.66;7366985;19;19923;-60
2022/01/07 04:00:09;;;;;;;;;;;;;;;2.36;78.14;99898.66;7370301;19;19982;-58
2022/01/07 04:02:34;;;;;;;;;;;;;;;2.34;78.36;99909.81;7370398;19;19942;-58
2022/01/07 04:05:00;;;;;;;;;;;;;;;2.33;78.30;99918.44;7363038;19;19919;-58
2022/01/07 04:07:25;;;;;;;;;;;;;;;2.31;78.47;99914.97;7367892;19;19994;-59
2022/01/07 04:09:50;;;;;;;;;;;;;;;2.31;78.63;99935.59;7368232;19;19919;-58
2022/01/07 04:12:15;;;;;;;;;;;;;;;2.30;78.97;99921.00;7368054;19;20325;-58
2022/01/07 04:14:41;;;;;;;;;;;;;;;2.30;78.58;99918.41;7369138;19;19919;-59
2022/01/07 04:17:07;;;;;;;;;;;;;;;2.29;78.94;99919.28;7369969;19;19919;-57
2022/01/07 04:19:33;;;;;;;;;;;;;;;2.30;79.16;99926.16;7360855;19;19915;-58
2022/01/07 04:21:58;;;;;;;;;;;;;;;2.31;78.98;99927.84;7367776;19;19939;-59
2022/01/07 04:24:23;;;;;;;;;;;;;;;2.31;79.26;99925.28;7370477;19;19926;-58
2022/01/07 04:26:48;;;;;;;;;;;;;;;2.31;78.90;99920.13;7371992;19;20534;-57
2022/01/07 04:29:14;;;;;;;;;;;;;;;2.33;79.27;99918.44;7371004;19;19919;-58
2022/01/07 04:31:39;;;;;;;;;;;;;;;2.33;79.52;99918.44;7364423;19;19939;-57
2022/01/07 04:34:04;;;;;;;;;;;;;;;2.34;79.13;99938.16;7370352;19;19929;-58
2022/01/07 04:36:30;;;;;;;;;;;;;;;2.36;79.44;99922.69;7370272;19;19933;-58
2022/01/07 04:38:55;;;;;;;;;;;;;;;2.37;79.16;99937.28;7370570;19;19922;-58
2022/01/07 04:41:20;;;;;;;;;;;;;;;2.39;79.21;99937.31;7370715;19;20736;-58
2022/01/07 04:43:45;;;;;;;;;;;;;;;2.41;79.64;99930.41;7368277;19;19923;-59
2022/01/07 04:46:11;;;;;;;;;;;;;;;2.45;79.96;99945.03;7366949;19;19921;-58
2022/01/07 04:48:36;;;;;;;;;;;;;;;2.49;79.65;99964.78;7365033;19;19915;-59
2022/01/07 04:51:02;;;;;;;;;;;;;;;2.51;79.87;99957.88;7363457;19;19946;-59
2022/01/07 04:53:27;;;;;;;;;;;;;;;2.55;79.63;99968.19;7367136;19;19934;-59
2022/01/07 04:55:53;;;;;;;;;;;;;;;2.56;79.42;99958.75;7367056;19;20240;-59
2022/01/07 04:58:19;;;;;;;;;;;;;;;2.57;79.99;99958.72;7368476;19;19922;-57
2022/01/07 05:00:45;;;;;;;;;;;;;;;2.59;79.75;99961.31;7364054;19;19919;-59
2022/01/07 05:03:10;;;;;;;;;;;;;;;2.63;80.00;99957.00;7370188;19;19930;-59
2022/01/07 05:05:36;;;;;;;;;;;;;;;2.65;79.87;99970.75;7363387;19;20010;-58
2022/01/07 05:08:02;;;;;;;;;;;;;;;2.67;79.98;99956.97;7371758;19;19930;-59
2022/01/07 05:10:28;;;;;;;;;;;;;;;2.67;79.75;99949.25;7364566;19;19938;-58
2022/01/07 05:12:53;;;;;;;;;;;;;;;2.70;79.77;99938.94;7366803;19;20192;-58
2022/01/07 05:15:19;;;;;;;;;;;;;;;2.70;79.55;99938.94;7367442;19;19930;-58
2022/01/07 05:17:45;;;;;;;;;;;;;;;2.69;78.95;99941.53;7365517;19;19922;-59
2022/01/07 05:20:10;;;;;;;;;;;;;;;2.68;79.20;99942.38;7365624;19;19934;-59
2022/01/07 05:22:36;;;;;;;;;;;;;;;2.67;78.98;99961.28;7367897;19;19922;-58
2022/01/07 05:25:02;;;;;;;;;;;;;;;2.67;79.27;99962.13;7366799;19;19949;-60
2022/01/07 05:27:28;;;;;;;;;;;;;;;2.66;79.18;99968.16;7365252;19;19922;-58
2022/01/07 05:29:53;;;;;;;;;;;;;;;2.65;79.24;99966.44;7366674;19;20168;-60
2022/01/07 05:32:19;;;;;;;;;;;;;;;2.66;78.97;99983.63;7367187;19;20001;-57
2022/01/07 05:34:45;;;;;;;;;;;;;;;2.65;79.05;99991.38;7365761;19;19914;-58
2022/01/07 05:37:10;;;;;;;;;;;;;;;2.65;79.47;99981.91;7365490;19;19927;-58
2022/01/07 05:39:36;;;;;;;;;;;;;;;2.65;79.10;99981.06;7365791;19;19918;-59
2022/01/07 05:42:01;;;;;;;;;;;;;;;2.64;79.36;99980.22;7367133;19;19929;-59
2022/01/07 05:44:26;;;;;;;;;;;;;;;2.63;78.84;99983.63;7365624;19;19950;-60
2022/01/07 05:46:52;;;;;;;;;;;;;;;2.63;78.78;99999.09;7364942;19;19927;-60
2022/01/07 05:49:17;;;;;;;;;;;;;;;2.60;78.66;100004.28;7364923;19;19952;-58
2022/01/07 05:51:42;;;;;;;;;;;;;;;2.58;79.10;99998.25;7364189;19;19939;-58
2022/01/07 05:54:11;;;;;;;;;;;;;;;2.57;79.22;100005.13;7365367;19;19922;-59
2022/01/07 05:56:36;;;;;;;;;;;;;;;2.56;79.06;100002.56;7366572;19;19947;-59
2022/01/07 05:59:02;;;;;;;;;;;;;;;2.55;79.31;100021.47;7362502;19;19911;-59
2022/01/07 06:01:27;;;;;;;;;;;;;;;2.54;79.04;100018.03;7367368;19;19951;-59
2022/01/07 06:03:52;;;;;;;;;;;;;;;2.55;79.13;100016.31;7364403;19;19923;-58
2022/01/07 06:06:18;;;;;;;;;;;;;;;2.55;79.73;100021.47;7366231;19;20289;-58
2022/01/07 06:08:43;;;;;;;;;;;;;;;2.56;79.29;100023.16;7363306;19;19926;-59
2022/01/07 06:11:09;;;;;;;;;;;;;;;2.56;79.59;100028.31;7366661;19;19926;-60
2022/01/07 06:13:34;;;;;;;;;;;;;;;2.56;79.51;100026.59;7366382;19;19933;-60
2022/01/07 06:15:59;;;;;;;;;;;;;;;2.57;78.98;100022.31;7362799;19;19918;-59
2022/01/07 06:18:24;;;;;;;;;;;;;;;2.55;79.04;100024.03;7367498;19;19918;-58
2022/01/07 06:20:50;;;;;;;;;;;;;;;2.54;79.23;100030.91;7357564;19;19918;-58
2022/01/07 06:23:16;;;;;;;;;;;;;;;2.53;79.27;100020.59;7364223;19;19926;-59
2022/01/07 06:25:44;;;;;;;;;;;;;;;2.52;79.02;100034.34;7361862;19;19952;-60
2022/01/07 06:28:09;;;;;;;;;;;;;;;2.51;79.27;100030.03;7365656;19;20446;-60
2022/01/07 06:30:35;;;;;;;;;;;;;;;2.50;79.08;100015.44;7365650;19;19918;-58
2022/01/07 06:33:00;;;;;;;;;;;;;;;2.50;79.40;100007.72;7363292;19;19950;-58
2022/01/07 06:35:25;;;;;;;;;;;;;;;2.50;78.94;100010.28;7365529;19;19919;-59
2022/01/07 06:37:50;;;;;;;;;;;;;;;2.48;78.98;100015.44;7360357;19;19982;-58
2022/01/07 06:40:16;;;;;;;;;;;;;;;2.48;78.90;100004.25;7364082;19;19918;-58
2022/01/07 06:42:41;;;;;;;;;;;;;;;2.46;79.10;100006.84;7364298;19;19943;-58
2022/01/07 06:45:07;;;;;;;;;;;;;;;2.46;79.13;100000.84;7364496;19;19938;-58
2022/01/07 06:47:32;;;;;;;;;;;;;;;2.45;79.23;100005.16;7365024;19;19922;-58
2022/01/07 06:49:58;;;;;;;;;;;;;;;2.45;78.87;100004.28;7362690;19;19915;-59
2022/01/07 06:52:23;;;;;;;;;;;;;;;2.43;78.83;100013.72;7359863;19;19944;-58
2022/01/07 06:54:48;;;;;;;;;;;;;;;2.42;79.13;100020.59;7363772;19;19929;-60
2022/01/07 06:57:14;;;;;;;;;;;;;;;2.41;78.76;100006.00;7364099;19;19923;-58
2022/01/07 06:59:39;;;;;;;;;;;;;;;2.42;79.35;100014.59;7364117;19;20382;-60
2022/01/07 07:02:04;;;;;;;;;;;;;;;2.40;79.41;100031.78;7366762;19;19938;-58
2022/01/07 07:04:30;;;;;;;;;;;;;;;2.39;78.94;100033.50;7365184;19;20248;-57
2022/01/07 07:06:55;;;;;;;;;;;;;;;2.39;79.06;100045.53;7360778;19;20377;-58
2022/01/07 07:09:20;;;;;;;;;;;;;;;2.40;79.14;100055.81;7362815;19;20694;-59
2022/01/07 07:11:46;;;;;;;;;;;;;;;2.39;79.24;100061.84;7363275;19;19927;-58
2022/01/07 07:14:11;;;;;;;;;;;;;;;2.40;79.03;100062.69;7363104;19;19923;-60
2022/01/07 07:16:37;;;;;;;;;;;;;;;2.39;79.03;100067.00;7363455;19;19922;-59
2022/01/07 07:19:02;;;;;;;;;;;;;;;2.40;78.99;100073.00;7355215;19;20344;-58
2022/01/07 07:21:27;;;;;;;;;;;;;;;2.40;79.37;100067.84;7364960;19;20307;-59
2022/01/07 07:23:53;;;;;;;;;;;;;;;2.39;79.34;100068.72;7358033;19;20177;-60
2022/01/07 07:26:18;;;;;;;;;;;;;;;2.39;79.04;100068.72;7362112;19;19936;-58
2022/01/07 07:28:44;;;;;;;;;;;;;;;2.39;79.00;100071.28;7359872;19;19922;-59
2022/01/07 07:31:13;;;;;;;;;;;;;;;2.38;79.00;100051.50;7360614;19;20352;-59
2022/01/07 07:36:32;;;;;;;;;;;;;;;2.38;79.28;100072.13;7358232;19;19943;-58
2022/01/07 07:39:00;;;;;;;;;;;;;;;2.37;79.21;100078.13;7361367;19;19930;-60
2022/01/07 07:41:26;;;;;;;;;;;;;;;2.37;79.20;100073.84;7360607;19;19986;-58
2022/01/07 07:43:51;;;;;;;;;;;;;;;2.39;79.34;100086.75;7361841;19;19918;-60
2022/01/07 07:46:18;;;;;;;;;;;;;;;2.38;79.10;100100.47;7361596;19;19923;-60
2022/01/07 07:48:45;;;;;;;;;;;;;;;2.40;79.68;100088.47;7363015;19;19919;-57
2022/01/07 07:51:10;;;;;;;;;;;;;;;2.41;79.54;100077.28;7362132;19;19942;-59
2022/01/07 07:53:35;;;;;;;;;;;;;;;2.43;79.49;100068.69;7359479;19;20778;-58
2022/01/07 07:56:00;;;;;;;;;;;;;;;2.45;79.78;100071.28;7349228;19;19937;-60
2022/01/07 07:58:27;;;;;;;;;;;;;;;2.46;79.40;100078.16;7357455;19;19942;-60
2022/01/07 08:00:53;;;;;;;;;;;;;;;2.48;79.45;100076.41;7361026;19;19943;-58
2022/01/07 08:03:19;;;;;;;;;;;;;;;2.48;79.55;100094.47;7356370;19;19915;-58
2022/01/07 08:05:45;;;;;;;;;;;;;;;2.49;79.42;100088.47;7360427;19;19934;-58
2022/01/07 08:08:10;;;;;;;;;;;;;;;2.48;79.43;100085.00;7364366;19;19933;-57
2022/01/07 08:10:44;;;;;;;;;;;;;;;2.48;79.07;100092.75;7367580;19;20439;-58
2022/01/07 08:18:22;;;;;;;;;;;;;;;2.53;79.78;100103.06;7366718;19;19921;-58
2022/01/07 08:20:48;;;;;;;;;;;;;;;2.55;79.59;100097.06;7366804;19;20373;-59
2022/01/07 08:23:13;;;;;;;;;;;;;;;2.56;79.62;100092.75;7363958;19;19918;-58
2022/01/07 08:25:38;;;;;;;;;;;;;;;2.59;79.39;100095.34;7368050;19;19937;-60
2022/01/07 08:28:05;;;;;;;;;;;;;;;2.62;79.73;100110.78;7366103;19;19914;-61
2022/01/07 08:30:37;;;;;;;;;;;;;;;2.63;79.49;100097.03;7367979;19;19939;-59
2022/01/07 08:35:47;;;;;;;;;;;;;;;2.67;79.71;100114.22;7367800;19;20328;-58
2022/01/07 08:38:12;;;;;;;;;;;;;;;2.70;79.64;100108.22;7370103;19;19982;-58
2022/01/07 08:40:39;;;;;;;;;;;;;;;2.72;79.59;100106.50;7364471;19;19925;-59
2022/01/07 08:43:04;;;;;;;;;;;;;;;2.74;79.55;100118.53;7365555;19;19926;-60
2022/01/07 08:45:30;;;;;;;;;;;;;;;2.77;79.48;100105.63;7362298;19;19915;-60
2022/01/07 08:47:55;;;;;;;;;;;;;;;2.79;79.70;100096.19;7364887;19;20596;-58
2022/01/07 08:50:21;;;;;;;;;;;;;;;2.81;79.59;100091.88;7365534;19;19934;-60
2022/01/07 08:52:46;;;;;;;;;;;;;;;2.84;79.60;100088.47;7368872;19;20010;-59
2022/01/07 08:55:12;;;;;;;;;;;;;;;2.86;79.88;100086.72;7364362;19;19922;-58
2022/01/07 08:57:37;;;;;;;;;;;;;;;2.89;79.58;100075.53;7367183;19;19911;-58
2022/01/07 09:00:03;;;;;;;;;;;;;;;2.91;79.77;100081.56;7365444;19;19922;-58
2022/01/07 09:02:29;;;;;;;;;;;;;;;2.93;79.48;100101.31;7366576;19;19919;-58
2022/01/07 09:04:55;;;;;;;;;;;;;;;2.96;79.63;100126.25;7362899;19;19930;-58
2022/01/07 09:07:21;;;;;;;;;;;;;;;2.98;79.63;100124.53;7340349;19;19950;-59
2022/01/07 09:09:46;;;;;;;;;;;;;;;3.00;79.39;100128.84;7362905;19;20261;-58
2022/01/07 09:12:11;;;;;;;;;;;;;;;3.02;79.59;100131.41;7360505;19;20318;-59
2022/01/07 09:14:37;;;;;;;;;;;;;;;3.05;79.38;100123.66;7345293;19;19925;-59
2022/01/07 09:17:02;;;;;;;;;;;;;;;3.05;79.46;100111.63;7358883;19;19919;-57
2022/01/07 09:19:28;;;;;;;;;;;;;;;3.08;79.45;100123.66;7344343;19;19910;-59
2022/01/07 09:21:55;;;;;;;;;;;;;;;3.09;79.35;100122.78;7366813;19;20848;-59
2022/01/07 09:24:21;;;;;;;;;;;;;;;3.12;79.46;100112.47;7366566;19;20259;-58
2022/01/07 09:26:47;;;;;;;;;;;;;;;3.15;79.22;100119.38;7362547;19;19918;-60
2022/01/07 09:29:12;;;;;;;;;;;;;;;3.16;79.24;100124.50;7363057;19;19922;-57
2022/01/07 09:31:38;;;;;;;;;;;;;;;3.18;79.28;100117.59;7366462;19;19922;-57
2022/01/07 09:34:03;;;;;;;;;;;;;;;3.20;79.19;100104.72;7368005;19;19930;-58
2022/01/07 09:36:29;;;;;;;;;;;;;;;3.22;79.26;100114.16;7341941;19;19993;-59
2022/01/07 09:38:54;;;;;;;;;;;;;;;3.24;79.46;100116.72;7329568;19;19915;-57
2022/01/07 09:41:19;;;;;;;;;;;;;;;3.25;79.34;100116.75;7353456;19;20273;-59
2022/01/07 09:43:45;;;;;;;;;;;;;;;3.27;79.58;100107.28;7360234;19;20707;-58
2022/01/07 09:46:14;;;;;;;;;;;;;;;3.31;79.53;100124.47;7359858;19;19926;-58
2022/01/07 09:48:40;;;;;;;;;;;;;;;3.31;79.21;100114.16;7359164;19;19929;-58
2022/01/07 09:51:05;;;;;;;;;;;;;;;3.34;79.35;100102.94;7361276;19;19914;-58
2022/01/07 09:53:31;;;;;;;;;;;;;;;3.36;79.37;100101.25;7357109;19;19938;-59
2022/01/07 09:55:56;;;;;;;;;;;;;;;3.38;79.38;100105.50;7358434;19;19990;-59
2022/01/07 09:58:21;;;;;;;;;;;;;;;3.41;79.14;100108.97;7362953;19;19918;-59
2022/01/07 10:00:46;;;;;;;;;;;;;;;3.44;79.19;100098.63;7361544;19;19922;-59
2022/01/07 10:03:16;;;;;;;;;;;;;;;3.44;79.21;100071.06;7340163;19;19936;-58
2022/01/07 10:05:41;;;;;;;;;;;;;;;3.47;79.26;100093.47;7356459;19;20047;-57
2022/01/07 10:08:23;;;;;;;;;;;;;;;3.48;79.22;100090.84;7314674;19;20705;-60
2022/01/07 10:11:07;;;;;;;;;;;;;;;3.50;79.43;100094.31;7277593;19;19940;-59
2022/01/07 10:13:33;;;;;;;;;;;;;;;3.53;79.23;100103.75;7297980;19;19921;-59
2022/01/07 10:16:11;;;;;;;;;;;;;;;3.55;79.21;100114.94;7338960;19;19918;-58
2022/01/07 10:18:40;;;;;;;;;;;;;;;3.57;79.04;100110.63;7341870;19;19943;-59
2022/01/07 10:21:09;;;;;;;;;;;;;;;3.59;79.07;100130.41;7350710;19;19922;-57
2022/01/07 10:23:34;;;;;;;;;;;;;;;3.60;79.55;100142.47;7354379;19;19986;-59
2022/01/07 10:25:59;;;;;;;;;;;;;;;3.65;79.24;100137.28;7362908;19;20227;-58
2022/01/07 10:28:29;;;;;;;;;;;;;;;3.67;79.32;100151.03;7362603;19;19921;-58
2022/01/07 10:30:55;;;;;;;;;;;;;;;3.69;79.07;100141.56;7329160;19;19919;-59
2022/01/07 10:33:22;;;;;;;;;;;;;;;3.72;79.14;100159.63;7318462;19;19999;-59
2022/01/07 10:35:49;;;;;;;;;;;;;;;3.75;79.12;100141.56;7320732;19;19931;-57
2022/01/07 10:38:24;;;;;;;;;;;;;;;3.77;79.17;100155.31;7296693;19;19933;-59
2022/01/07 10:40:51;;;;;;;;;;;;;;;3.80;79.36;100159.59;7324735;19;19971;-58
2022/01/07 10:43:24;;;;;;;;;;;;;;;3.82;79.11;100148.41;7323540;19;19940;-60
2022/01/07 10:45:49;;;;;;;;;;;;;;;3.85;79.59;100147.50;7345257;19;20815;-59
2022/01/07 10:48:14;;;;;;;;;;;;;;;3.88;79.04;100138.03;7363489;19;19938;-58
2022/01/07 10:50:47;;;;;;;;;;;;;;;3.90;79.01;100138.00;7355237;19;20010;-59
2022/01/07 10:53:14;;;;;;;;;;;;;;;3.95;79.17;100138.00;7359572;19;19998;-60
2022/01/07 10:55:39;;;;;;;;;;;;;;;3.97;78.84;100120.78;7356235;19;19910;-58
2022/01/07 10:58:04;;;;;;;;;;;;;;;3.98;78.95;100122.50;7358998;19;19911;-59
2022/01/07 11:00:35;;;;;;;;;;;;;;;3.99;78.72;100119.03;7331721;19;19918;-58
2022/01/07 11:03:01;;;;;;;;;;;;;;;4.00;79.02;100167.25;7360682;19;19935;-59
2022/01/07 11:05:26;;;;;;;;;;;;;;;4.00;78.74;100168.09;7336222;19;19922;-58
2022/01/07 11:07:57;;;;;;;;;;;;;;;4.02;78.54;100181.03;7360803;19;19926;-59
2022/01/07 11:10:22;;;;;;;;;;;;;;;4.03;78.74;100175.00;7349431;19;20253;-60
2022/01/07 11:12:47;;;;;;;;;;;;;;;4.02;78.48;100175.88;7355092;19;20946;-59
2022/01/07 11:15:14;;;;;;;;;;;;;;;4.02;78.89;100181.91;7294992;19;20367;-59
2022/01/07 11:17:44;;;;;;;;;;;;;;;4.02;78.85;100176.72;7239310;19;19940;-57
2022/01/07 11:20:12;;;;;;;;;;;;;;;4.01;78.81;100161.25;7342542;19;19922;-59
2022/01/07 11:22:40;;;;;;;;;;;;;;;4.01;78.73;100169.00;7282628;19;19918;-58
2022/01/07 11:25:13;;;;;;;;;;;;;;;4.02;78.76;100196.53;7331554;19;19918;-58
2022/01/07 11:27:46;;;;;;;;;;;;;;;4.03;78.96;100203.41;7360005;19;19918;-60
2022/01/07 11:30:18;;;;;;;;;;;;;;;4.03;78.80;100212.03;7325710;19;19951;-57
2022/01/07 11:32:51;;;;;;;;;;;;;;;4.04;78.57;100238.72;7300107;19;20495;-59
2022/01/07 11:35:17;;;;;;;;;;;;;;;4.05;78.69;100227.50;7277630;19;19919;-57
2022/01/07 11:37:43;;;;;;;;;;;;;;;4.03;78.06;100239.59;7296595;19;20320;-59
2022/01/07 11:40:09;;;;;;;;;;;;;;;4.00;78.04;100240.44;7354629;19;19935;-56
2022/01/07 11:42:39;;;;;;;;;;;;;;;3.97;78.35;100243.06;7363215;19;19940;-58
2022/01/07 11:45:26;;;;;;;;;;;;;;;3.96;78.54;100248.22;7366480;19;19951;-59
2022/01/07 11:47:51;;;;;;;;;;;;;;;3.90;78.60;100257.72;7366490;19;19922;-56
2022/01/07 11:50:17;;;;;;;;;;;;;;;3.87;78.00;100249.97;7365707;19;19921;-58
2022/01/07 11:52:54;;;;;;;;;;;;;;;3.82;77.83;100256.88;7364266;19;19922;-58
2022/01/07 11:55:23;;;;;;;;;;;;;;;3.78;77.92;100260.31;7360716;19;19918;-58
2022/01/07 11:57:49;;;;;;;;;;;;;;;3.71;77.95;100248.28;7364567;19;19969;-58
2022/01/07 12:00:14;;;;;;;;;;;;;;;3.64;77.52;100237.09;7366484;19;19918;-60
2022/01/07 12:03:00;;;;;;;;;;;;;;;3.54;77.54;100224.22;7363910;19;19934;-57
2022/01/07 12:05:30;;;;;;;;;;;;;;;3.45;77.41;100204.47;7365260;19;19958;-58
2022/01/07 12:07:55;;;;;;;;;;;;;;;3.31;77.53;100196.72;7365416;19;19919;-59
2022/01/07 12:10:20;;;;;;;;;;;;;;;3.30;78.03;100210.50;7358125;19;19928;-57
2022/01/07 12:12:46;;;;;;;;;;;;;;;3.22;78.29;100204.47;7364194;19;19962;-57
2022/01/07 12:15:11;;;;;;;;;;;;;;;3.18;78.21;100215.66;7362113;19;19941;-58
2022/01/07 12:17:36;;;;;;;;;;;;;;;3.16;78.70;100209.66;7360982;19;19921;-58
2022/01/07 12:20:21;;;;;;;;;;;;;;;3.15;78.74;100205.34;7362089;19;19951;-59
2022/01/07 12:22:47;;;;;;;;;;;;;;;3.14;78.94;100213.94;7362824;19;19918;-58
2022/01/07 12:25:12;;;;;;;;;;;;;;;3.16;79.29;100226.84;7357045;19;20328;-58
2022/01/07 12:27:38;;;;;;;;;;;;;;;3.18;79.82;100215.66;7358366;19;20294;-59
2022/01/07 12:30:03;;;;;;;;;;;;;;;3.24;79.97;100217.34;7359228;19;19915;-57
2022/01/07 12:32:30;;;;;;;;;;;;;;;3.32;80.04;100223.38;7364471;19;19927;-59
2022/01/07 12:34:55;;;;;;;;;;;;;;;3.38;79.85;100221.66;7337273;19;20261;-58
2022/01/07 12:37:22;;;;;;;;;;;;;;;3.44;79.85;100232.81;7361561;19;20627;-58
2022/01/07 12:39:48;;;;;;;;;;;;;;;3.50;80.10;100238.00;7358389;19;19922;-57
2022/01/07 12:42:14;;;;;;;;;;;;;;;3.53;80.03;100248.31;7339604;19;20363;-57
2022/01/07 12:44:41;;;;;;;;;;;;;;;3.57;79.55;100250.03;7332402;19;19986;-58
2022/01/07 12:47:07;;;;;;;;;;;;;;;3.59;80.06;100237.97;7359143;19;20455;-58
2022/01/07 12:49:33;;;;;;;;;;;;;;;3.62;79.94;100227.66;7364822;19;19927;-57
2022/01/07 12:52:03;;;;;;;;;;;;;;;3.64;79.75;100249.16;7361097;19;19926;-58
2022/01/07 12:54:28;;;;;;;;;;;;;;;3.65;79.75;100243.16;7364917;19;19946;-59
2022/01/07 12:56:53;;;;;;;;;;;;;;;3.64;79.15;100241.41;7356852;19;20349;-56